sensor_id;sensor_type;location;lat;lon;timestamp;P1;durP1;ratioP1;P2;durP2;ratioP2
21148;SDS011;10732;51.472;6.466;2023-08-20T00:00:09;17.55;;;11.90;;
21148;SDS011;10732;51.472;6.466;2023-08-20T00:02:36;18.40;;;11.70;;
21148;SDS011;10732;51.472;6.466;2023-08-20T00:05:02;15.40;;;11.50;;
21148;SDS011;10732;51.472;6.466;2023-08-20T00:07:29;18.27;;;12.38;;
21148;SDS011;10732;51.472;6.466;2023-08-20T00:09:58;17.05;;;11.68;;
21148;SDS011;10732;51.472;6.466;2023-08-20T00:12:24;18.17;;;11.73;;
21148;SDS011;10732;51.472;6.466;2023-08-20T00:14:51;17.30;;;12.25;;
21148;SDS011;10732;51.472;6.466;2023-08-20T00:17:31;19.55;;;12.43;;
21148;SDS011;10732;51.472;6.466;2023-08-20T00:19:58;23.23;;;12.05;;
21148;SDS011;10732;51.472;6.466;2023-08-20T00:22:24;17.65;;;11.55;;
21148;SDS011;10732;51.472;6.466;2023-08-20T00:24:50;20.05;;;11.70;;
21148;SDS011;10732;51.472;6.466;2023-08-20T00:27:20;16.38;;;11.48;;
21148;SDS011;10732;51.472;6.466;2023-08-20T00:29:46;19.23;;;11.88;;
21148;SDS011;10732;51.472;6.466;2023-08-20T00:32:11;14.85;;;10.90;;
21148;SDS011;10732;51.472;6.466;2023-08-20T00:34:37;18.17;;;12.15;;
21148;SDS011;10732;51.472;6.466;2023-08-20T00:37:03;15.85;;;11.32;;
21148;SDS011;10732;51.472;6.466;2023-08-20T00:39:29;21.25;;;12.35;;
21148;SDS011;10732;51.472;6.466;2023-08-20T00:41:54;18.77;;;12.23;;
21148;SDS011;10732;51.472;6.466;2023-08-20T00:44:20;17.35;;;12.63;;
21148;SDS011;10732;51.472;6.466;2023-08-20T00:46:46;17.38;;;12.18;;
21148;SDS011;10732;51.472;6.466;2023-08-20T00:49:12;21.95;;;13.40;;
21148;SDS011;10732;51.472;6.466;2023-08-20T00:51:38;17.05;;;12.27;;
21148;SDS011;10732;51.472;6.466;2023-08-20T00:54:04;21.38;;;12.93;;
21148;SDS011;10732;51.472;6.466;2023-08-20T00:56:30;20.63;;;13.15;;
21148;SDS011;10732;51.472;6.466;2023-08-20T00:58:55;20.58;;;13.43;;
21148;SDS011;10732;51.472;6.466;2023-08-20T01:01:21;22.02;;;14.02;;
21148;SDS011;10732;51.472;6.466;2023-08-20T01:03:47;20.73;;;14.43;;
21148;SDS011;10732;51.472;6.466;2023-08-20T01:08:58;23.88;;;16.00;;
21148;SDS011;10732;51.472;6.466;2023-08-20T01:11:33;27.45;;;17.00;;
21148;SDS011;10732;51.472;6.466;2023-08-20T01:14:02;20.20;;;16.08;;
21148;SDS011;10732;51.472;6.466;2023-08-20T01:16:27;23.38;;;16.75;;
21148;SDS011;10732;51.472;6.466;2023-08-20T01:18:53;21.35;;;15.60;;
21148;SDS011;10732;51.472;6.466;2023-08-20T01:21:38;19.65;;;15.20;;
21148;SDS011;10732;51.472;6.466;2023-08-20T01:27:00;21.48;;;16.15;;
21148;SDS011;10732;51.472;6.466;2023-08-20T01:29:38;22.23;;;16.35;;
21148;SDS011;10732;51.472;6.466;2023-08-20T01:32:04;22.65;;;16.65;;
21148;SDS011;10732;51.472;6.466;2023-08-20T01:34:30;23.10;;;17.05;;
21148;SDS011;10732;51.472;6.466;2023-08-20T01:36:56;24.35;;;17.13;;
21148;SDS011;10732;51.472;6.466;2023-08-20T01:39:22;23.00;;;16.25;;
21148;SDS011;10732;51.472;6.466;2023-08-20T01:41:48;28.92;;;17.90;;
21148;SDS011;10732;51.472;6.466;2023-08-20T01:44:14;25.02;;;16.67;;
21148;SDS011;10732;51.472;6.466;2023-08-20T01:46:39;23.65;;;15.95;;
21148;SDS011;10732;51.472;6.466;2023-08-20T01:49:05;23.85;;;15.93;;
21148;SDS011;10732;51.472;6.466;2023-08-20T01:51:30;21.27;;;16.05;;
21148;SDS011;10732;51.472;6.466;2023-08-20T01:53:56;21.80;;;15.00;;
21148;SDS011;10732;51.472;6.466;2023-08-20T01:56:21;21.73;;;15.30;;
21148;SDS011;10732;51.472;6.466;2023-08-20T01:58:47;23.73;;;15.70;;
21148;SDS011;10732;51.472;6.466;2023-08-20T02:01:12;25.10;;;15.18;;
21148;SDS011;10732;51.472;6.466;2023-08-20T02:03:38;23.92;;;16.58;;
21148;SDS011;10732;51.472;6.466;2023-08-20T02:06:04;26.25;;;17.52;;
21148;SDS011;10732;51.472;6.466;2023-08-20T02:08:29;26.48;;;18.67;;
21148;SDS011;10732;51.472;6.466;2023-08-20T02:11:01;27.45;;;18.10;;
21148;SDS011;10732;51.472;6.466;2023-08-20T02:13:28;31.50;;;19.13;;
21148;SDS011;10732;51.472;6.466;2023-08-20T02:15:57;26.90;;;18.77;;
21148;SDS011;10732;51.472;6.466;2023-08-20T02:18:26;27.20;;;17.75;;
21148;SDS011;10732;51.472;6.466;2023-08-20T02:20:52;29.08;;;20.35;;
21148;SDS011;10732;51.472;6.466;2023-08-20T02:23:18;30.52;;;19.92;;
21148;SDS011;10732;51.472;6.466;2023-08-20T02:25:43;28.77;;;19.20;;
21148;SDS011;10732;51.472;6.466;2023-08-20T02:28:09;36.45;;;22.60;;
21148;SDS011;10732;51.472;6.466;2023-08-20T02:30:39;35.33;;;21.52;;
21148;SDS011;10732;51.472;6.466;2023-08-20T02:33:05;30.88;;;20.58;;
21148;SDS011;10732;51.472;6.466;2023-08-20T02:35:31;28.17;;;19.88;;
21148;SDS011;10732;51.472;6.466;2023-08-20T02:37:56;33.03;;;17.92;;
21148;SDS011;10732;51.472;6.466;2023-08-20T02:40:22;27.67;;;18.58;;
21148;SDS011;10732;51.472;6.466;2023-08-20T02:42:47;25.70;;;18.15;;
21148;SDS011;10732;51.472;6.466;2023-08-20T02:45:13;28.70;;;19.15;;
21148;SDS011;10732;51.472;6.466;2023-08-20T02:47:38;25.88;;;19.80;;
21148;SDS011;10732;51.472;6.466;2023-08-20T02:50:04;31.17;;;19.50;;
21148;SDS011;10732;51.472;6.466;2023-08-20T02:52:30;26.73;;;19.42;;
21148;SDS011;10732;51.472;6.466;2023-08-20T02:54:55;32.30;;;19.48;;
21148;SDS011;10732;51.472;6.466;2023-08-20T02:57:21;29.63;;;19.50;;
21148;SDS011;10732;51.472;6.466;2023-08-20T02:59:46;33.97;;;20.48;;
21148;SDS011;10732;51.472;6.466;2023-08-20T03:02:12;30.10;;;19.33;;
21148;SDS011;10732;51.472;6.466;2023-08-20T03:04:37;30.42;;;21.05;;
21148;SDS011;10732;51.472;6.466;2023-08-20T03:07:03;34.15;;;21.90;;
21148;SDS011;10732;51.472;6.466;2023-08-20T03:09:29;35.28;;;22.20;;
21148;SDS011;10732;51.472;6.466;2023-08-20T03:11:55;32.10;;;21.52;;
21148;SDS011;10732;51.472;6.466;2023-08-20T03:14:20;34.95;;;23.20;;
21148;SDS011;10732;51.472;6.466;2023-08-20T03:16:46;34.30;;;21.95;;
21148;SDS011;10732;51.472;6.466;2023-08-20T03:19:13;33.30;;;23.45;;
21148;SDS011;10732;51.472;6.466;2023-08-20T03:21:40;34.72;;;22.88;;
21148;SDS011;10732;51.472;6.466;2023-08-20T03:24:05;31.08;;;22.23;;
21148;SDS011;10732;51.472;6.466;2023-08-20T03:26:32;31.05;;;22.08;;
21148;SDS011;10732;51.472;6.466;2023-08-20T03:28:57;35.83;;;23.60;;
21148;SDS011;10732;51.472;6.466;2023-08-20T03:31:23;30.83;;;20.90;;
21148;SDS011;10732;51.472;6.466;2023-08-20T03:33:49;32.20;;;22.05;;
21148;SDS011;10732;51.472;6.466;2023-08-20T03:36:14;28.77;;;21.30;;
21148;SDS011;10732;51.472;6.466;2023-08-20T03:38:40;32.85;;;21.92;;
21148;SDS011;10732;51.472;6.466;2023-08-20T03:41:06;31.67;;;22.48;;
21148;SDS011;10732;51.472;6.466;2023-08-20T03:43:31;31.80;;;21.80;;
21148;SDS011;10732;51.472;6.466;2023-08-20T03:45:57;30.75;;;20.92;;
21148;SDS011;10732;51.472;6.466;2023-08-20T03:48:22;29.95;;;21.00;;
21148;SDS011;10732;51.472;6.466;2023-08-20T03:50:48;26.70;;;20.08;;
21148;SDS011;10732;51.472;6.466;2023-08-20T03:53:14;28.33;;;20.58;;
21148;SDS011;10732;51.472;6.466;2023-08-20T03:55:40;28.58;;;21.08;;
21148;SDS011;10732;51.472;6.466;2023-08-20T03:58:05;32.97;;;21.17;;
21148;SDS011;10732;51.472;6.466;2023-08-20T04:00:31;33.40;;;22.15;;
21148;SDS011;10732;51.472;6.466;2023-08-20T04:02:59;32.33;;;21.98;;
21148;SDS011;10732;51.472;6.466;2023-08-20T04:05:24;35.83;;;21.90;;
21148;SDS011;10732;51.472;6.466;2023-08-20T04:07:50;37.25;;;24.08;;
21148;SDS011;10732;51.472;6.466;2023-08-20T04:10:15;32.75;;;22.80;;
21148;SDS011;10732;51.472;6.466;2023-08-20T04:12:41;36.97;;;24.88;;
21148;SDS011;10732;51.472;6.466;2023-08-20T04:15:06;36.13;;;24.45;;
21148;SDS011;10732;51.472;6.466;2023-08-20T04:17:32;37.53;;;25.52;;
21148;SDS011;10732;51.472;6.466;2023-08-20T04:19:58;34.10;;;23.73;;
21148;SDS011;10732;51.472;6.466;2023-08-20T04:22:23;32.92;;;22.85;;
21148;SDS011;10732;51.472;6.466;2023-08-20T04:24:50;31.92;;;22.85;;
21148;SDS011;10732;51.472;6.466;2023-08-20T04:27:15;37.83;;;24.42;;
21148;SDS011;10732;51.472;6.466;2023-08-20T04:29:41;35.42;;;23.85;;
21148;SDS011;10732;51.472;6.466;2023-08-20T04:32:06;32.75;;;22.40;;
21148;SDS011;10732;51.472;6.466;2023-08-20T04:34:32;36.53;;;24.73;;
21148;SDS011;10732;51.472;6.466;2023-08-20T04:36:58;38.42;;;25.05;;
21148;SDS011;10732;51.472;6.466;2023-08-20T04:39:23;36.35;;;25.08;;
21148;SDS011;10732;51.472;6.466;2023-08-20T04:41:49;37.33;;;25.58;;
21148;SDS011;10732;51.472;6.466;2023-08-20T04:44:14;42.78;;;25.70;;
21148;SDS011;10732;51.472;6.466;2023-08-20T04:46:40;32.25;;;23.70;;
21148;SDS011;10732;51.472;6.466;2023-08-20T04:49:07;35.25;;;24.38;;
21148;SDS011;10732;51.472;6.466;2023-08-20T04:51:33;31.98;;;24.08;;
21148;SDS011;10732;51.472;6.466;2023-08-20T04:53:58;36.53;;;24.73;;
21148;SDS011;10732;51.472;6.466;2023-08-20T04:56:24;31.38;;;22.75;;
21148;SDS011;10732;51.472;6.466;2023-08-20T04:58:49;39.10;;;24.05;;
21148;SDS011;10732;51.472;6.466;2023-08-20T05:01:15;30.27;;;22.80;;
21148;SDS011;10732;51.472;6.466;2023-08-20T05:03:41;30.20;;;21.23;;
21148;SDS011;10732;51.472;6.466;2023-08-20T05:06:06;28.27;;;20.75;;
21148;SDS011;10732;51.472;6.466;2023-08-20T05:08:32;26.02;;;19.80;;
21148;SDS011;10732;51.472;6.466;2023-08-20T05:10:57;21.73;;;17.67;;
21148;SDS011;10732;51.472;6.466;2023-08-20T05:13:23;24.00;;;16.40;;
21148;SDS011;10732;51.472;6.466;2023-08-20T05:15:49;18.33;;;15.15;;
21148;SDS011;10732;51.472;6.466;2023-08-20T05:18:14;17.90;;;14.40;;
21148;SDS011;10732;51.472;6.466;2023-08-20T05:20:40;19.75;;;12.95;;
21148;SDS011;10732;51.472;6.466;2023-08-20T05:23:06;15.38;;;11.75;;
21148;SDS011;10732;51.472;6.466;2023-08-20T05:25:32;18.67;;;11.80;;
21148;SDS011;10732;51.472;6.466;2023-08-20T05:27:57;13.02;;;10.82;;
21148;SDS011;10732;51.472;6.466;2023-08-20T05:30:23;13.95;;;10.63;;
21148;SDS011;10732;51.472;6.466;2023-08-20T05:32:48;11.70;;;9.85;;
21148;SDS011;10732;51.472;6.466;2023-08-20T05:35:14;14.60;;;10.13;;
21148;SDS011;10732;51.472;6.466;2023-08-20T05:37:39;17.05;;;10.02;;
21148;SDS011;10732;51.472;6.466;2023-08-20T05:40:05;13.13;;;9.40;;
21148;SDS011;10732;51.472;6.466;2023-08-20T05:42:33;15.43;;;9.27;;
21148;SDS011;10732;51.472;6.466;2023-08-20T05:44:59;11.90;;;9.48;;
21148;SDS011;10732;51.472;6.466;2023-08-20T05:47:24;10.95;;;8.63;;
21148;SDS011;10732;51.472;6.466;2023-08-20T05:49:50;12.18;;;8.40;;
21148;SDS011;10732;51.472;6.466;2023-08-20T05:52:16;11.43;;;9.10;;
21148;SDS011;10732;51.472;6.466;2023-08-20T05:54:41;12.20;;;8.70;;
21148;SDS011;10732;51.472;6.466;2023-08-20T05:57:07;9.77;;;8.77;;
21148;SDS011;10732;51.472;6.466;2023-08-20T05:59:32;11.77;;;8.20;;
21148;SDS011;10732;51.472;6.466;2023-08-20T06:01:58;13.15;;;8.68;;
21148;SDS011;10732;51.472;6.466;2023-08-20T06:04:23;14.00;;;8.52;;
21148;SDS011;10732;51.472;6.466;2023-08-20T06:06:49;12.15;;;8.52;;
21148;SDS011;10732;51.472;6.466;2023-08-20T06:09:14;13.55;;;7.72;;
21148;SDS011;10732;51.472;6.466;2023-08-20T06:11:40;9.70;;;7.97;;
21148;SDS011;10732;51.472;6.466;2023-08-20T06:14:05;11.77;;;8.45;;
21148;SDS011;10732;51.472;6.466;2023-08-20T06:16:31;14.88;;;8.05;;
21148;SDS011;10732;51.472;6.466;2023-08-20T06:18:57;8.65;;;7.32;;
21148;SDS011;10732;51.472;6.466;2023-08-20T06:21:23;11.93;;;5.90;;
21148;SDS011;10732;51.472;6.466;2023-08-20T06:23:48;11.30;;;6.82;;
21148;SDS011;10732;51.472;6.466;2023-08-20T06:26:14;9.55;;;6.93;;
21148;SDS011;10732;51.472;6.466;2023-08-20T06:28:39;8.45;;;6.60;;
21148;SDS011;10732;51.472;6.466;2023-08-20T06:31:05;12.45;;;7.80;;
21148;SDS011;10732;51.472;6.466;2023-08-20T06:33:30;9.90;;;7.30;;
21148;SDS011;10732;51.472;6.466;2023-08-20T06:35:56;9.98;;;7.15;;
21148;SDS011;10732;51.472;6.466;2023-08-20T06:38:21;10.32;;;7.13;;
21148;SDS011;10732;51.472;6.466;2023-08-20T06:40:47;9.45;;;6.97;;
21148;SDS011;10732;51.472;6.466;2023-08-20T06:43:13;8.95;;;7.20;;
21148;SDS011;10732;51.472;6.466;2023-08-20T06:45:38;12.13;;;8.60;;
21148;SDS011;10732;51.472;6.466;2023-08-20T06:48:04;14.23;;;8.00;;
21148;SDS011;10732;51.472;6.466;2023-08-20T06:50:30;8.30;;;7.43;;
21148;SDS011;10732;51.472;6.466;2023-08-20T06:52:56;13.73;;;8.45;;
21148;SDS011;10732;51.472;6.466;2023-08-20T06:55:21;12.73;;;9.00;;
21148;SDS011;10732;51.472;6.466;2023-08-20T06:57:47;12.10;;;9.90;;
21148;SDS011;10732;51.472;6.466;2023-08-20T07:00:12;11.10;;;9.90;;
21148;SDS011;10732;51.472;6.466;2023-08-20T07:02:38;12.35;;;11.10;;
21148;SDS011;10732;51.472;6.466;2023-08-20T07:05:03;13.32;;;11.55;;
21148;SDS011;10732;51.472;6.466;2023-08-20T07:07:29;14.50;;;11.70;;
21148;SDS011;10732;51.472;6.466;2023-08-20T07:09:55;11.95;;;10.18;;
21148;SDS011;10732;51.472;6.466;2023-08-20T07:12:20;15.40;;;10.82;;
21148;SDS011;10732;51.472;6.466;2023-08-20T07:14:46;12.65;;;10.55;;
21148;SDS011;10732;51.472;6.466;2023-08-20T07:17:11;14.75;;;10.82;;
21148;SDS011;10732;51.472;6.466;2023-08-20T07:19:37;15.38;;;10.65;;
21148;SDS011;10732;51.472;6.466;2023-08-20T07:22:02;14.60;;;11.48;;
21148;SDS011;10732;51.472;6.466;2023-08-20T07:24:28;11.48;;;9.77;;
21148;SDS011;10732;51.472;6.466;2023-08-20T07:26:55;13.80;;;10.10;;
21148;SDS011;10732;51.472;6.466;2023-08-20T07:29:26;13.60;;;10.40;;
21148;SDS011;10732;51.472;6.466;2023-08-20T07:31:54;16.13;;;10.18;;
21148;SDS011;10732;51.472;6.466;2023-08-20T07:34:20;15.02;;;10.73;;
21148;SDS011;10732;51.472;6.466;2023-08-20T07:36:46;15.38;;;11.40;;
21148;SDS011;10732;51.472;6.466;2023-08-20T07:39:12;17.15;;;11.25;;
21148;SDS011;10732;51.472;6.466;2023-08-20T07:41:37;16.52;;;11.23;;
21148;SDS011;10732;51.472;6.466;2023-08-20T07:44:03;15.13;;;11.25;;
21148;SDS011;10732;51.472;6.466;2023-08-20T07:46:29;16.20;;;11.15;;
21148;SDS011;10732;51.472;6.466;2023-08-20T07:48:55;15.73;;;11.32;;
21148;SDS011;10732;51.472;6.466;2023-08-20T07:51:21;15.27;;;11.15;;
21148;SDS011;10732;51.472;6.466;2023-08-20T07:53:46;17.50;;;11.88;;
21148;SDS011;10732;51.472;6.466;2023-08-20T07:56:12;17.27;;;11.60;;
21148;SDS011;10732;51.472;6.466;2023-08-20T07:58:37;15.82;;;11.00;;
21148;SDS011;10732;51.472;6.466;2023-08-20T08:01:03;14.05;;;10.98;;
21148;SDS011;10732;51.472;6.466;2023-08-20T08:03:28;17.45;;;11.35;;
21148;SDS011;10732;51.472;6.466;2023-08-20T08:05:54;15.68;;;10.05;;
21148;SDS011;10732;51.472;6.466;2023-08-20T08:08:20;14.82;;;10.48;;
21148;SDS011;10732;51.472;6.466;2023-08-20T08:10:46;16.30;;;10.88;;
21148;SDS011;10732;51.472;6.466;2023-08-20T08:13:12;13.88;;;9.82;;
21148;SDS011;10732;51.472;6.466;2023-08-20T08:15:39;16.20;;;10.65;;
21148;SDS011;10732;51.472;6.466;2023-08-20T08:18:05;14.68;;;9.43;;
21148;SDS011;10732;51.472;6.466;2023-08-20T08:20:31;14.25;;;10.82;;
21148;SDS011;10732;51.472;6.466;2023-08-20T08:22:57;16.60;;;10.90;;
21148;SDS011;10732;51.472;6.466;2023-08-20T08:25:22;14.15;;;10.32;;
21148;SDS011;10732;51.472;6.466;2023-08-20T08:27:48;15.40;;;11.57;;
21148;SDS011;10732;51.472;6.466;2023-08-20T08:30:14;15.43;;;11.45;;
21148;SDS011;10732;51.472;6.466;2023-08-20T08:32:39;14.27;;;10.95;;
21148;SDS011;10732;51.472;6.466;2023-08-20T08:35:05;14.00;;;10.93;;
21148;SDS011;10732;51.472;6.466;2023-08-20T08:37:31;12.82;;;11.45;;
21148;SDS011;10732;51.472;6.466;2023-08-20T08:39:57;16.50;;;11.23;;
21148;SDS011;10732;51.472;6.466;2023-08-20T08:42:22;11.20;;;8.98;;
21148;SDS011;10732;51.472;6.466;2023-08-20T08:44:52;12.23;;;9.80;;
21148;SDS011;10732;51.472;6.466;2023-08-20T08:47:18;12.73;;;10.15;;
21148;SDS011;10732;51.472;6.466;2023-08-20T08:49:44;11.13;;;9.85;;
21148;SDS011;10732;51.472;6.466;2023-08-20T08:52:11;15.75;;;11.50;;
21148;SDS011;10732;51.472;6.466;2023-08-20T08:54:37;11.05;;;7.68;;
21148;SDS011;10732;51.472;6.466;2023-08-20T08:57:03;11.60;;;8.15;;
21148;SDS011;10732;51.472;6.466;2023-08-20T08:59:29;9.82;;;7.47;;
21148;SDS011;10732;51.472;6.466;2023-08-20T09:01:55;10.60;;;7.28;;
21148;SDS011;10732;51.472;6.466;2023-08-20T09:04:22;10.65;;;7.07;;
21148;SDS011;10732;51.472;6.466;2023-08-20T09:06:55;10.43;;;7.13;;
21148;SDS011;10732;51.472;6.466;2023-08-20T09:09:21;10.10;;;7.65;;
21148;SDS011;10732;51.472;6.466;2023-08-20T09:11:47;14.90;;;7.78;;
21148;SDS011;10732;51.472;6.466;2023-08-20T09:14:31;9.05;;;6.97;;
21148;SDS011;10732;51.472;6.466;2023-08-20T09:17:00;11.70;;;8.18;;
21148;SDS011;10732;51.472;6.466;2023-08-20T09:19:36;9.77;;;7.70;;
21148;SDS011;10732;51.472;6.466;2023-08-20T09:22:04;13.68;;;6.82;;
21148;SDS011;10732;51.472;6.466;2023-08-20T09:27:09;8.55;;;6.43;;
21148;SDS011;10732;51.472;6.466;2023-08-20T09:32:15;10.35;;;8.45;;
21148;SDS011;10732;51.472;6.466;2023-08-20T09:34:47;9.55;;;7.25;;
21148;SDS011;10732;51.472;6.466;2023-08-20T09:37:14;10.85;;;8.40;;
21148;SDS011;10732;51.472;6.466;2023-08-20T09:39:41;10.93;;;7.45;;
21148;SDS011;10732;51.472;6.466;2023-08-20T09:42:08;10.40;;;6.88;;
21148;SDS011;10732;51.472;6.466;2023-08-20T09:44:38;10.65;;;7.50;;
21148;SDS011;10732;51.472;6.466;2023-08-20T09:47:08;12.80;;;7.85;;
21148;SDS011;10732;51.472;6.466;2023-08-20T09:49:38;9.43;;;6.78;;
21148;SDS011;10732;51.472;6.466;2023-08-20T09:52:06;8.50;;;7.38;;
21148;SDS011;10732;51.472;6.466;2023-08-20T09:57:12;10.32;;;6.97;;
21148;SDS011;10732;51.472;6.466;2023-08-20T09:59:48;9.95;;;6.47;;
21148;SDS011;10732;51.472;6.466;2023-08-20T10:02:15;10.05;;;6.05;;
21148;SDS011;10732;51.472;6.466;2023-08-20T10:04:41;8.90;;;5.53;;
21148;SDS011;10732;51.472;6.466;2023-08-20T10:07:09;8.23;;;5.78;;
21148;SDS011;10732;51.472;6.466;2023-08-20T10:09:35;8.40;;;6.75;;
21148;SDS011;10732;51.472;6.466;2023-08-20T10:12:02;10.93;;;6.43;;
21148;SDS011;10732;51.472;6.466;2023-08-20T10:14:28;9.73;;;5.00;;
21148;SDS011;10732;51.472;6.466;2023-08-20T10:16:53;8.63;;;4.78;;
21148;SDS011;10732;51.472;6.466;2023-08-20T10:19:19;7.95;;;4.85;;
21148;SDS011;10732;51.472;6.466;2023-08-20T10:21:45;6.97;;;4.35;;
21148;SDS011;10732;51.472;6.466;2023-08-20T10:24:15;7.03;;;4.63;;
21148;SDS011;10732;51.472;6.466;2023-08-20T10:26:44;6.40;;;4.10;;
21148;SDS011;10732;51.472;6.466;2023-08-20T10:32:00;5.53;;;3.20;;
21148;SDS011;10732;51.472;6.466;2023-08-20T10:34:32;5.47;;;3.50;;
21148;SDS011;10732;51.472;6.466;2023-08-20T10:37:03;6.50;;;3.53;;
21148;SDS011;10732;51.472;6.466;2023-08-20T10:39:35;6.57;;;2.85;;
21148;SDS011;10732;51.472;6.466;2023-08-20T10:45:18;5.57;;;3.22;;
21148;SDS011;10732;51.472;6.466;2023-08-20T10:47:43;6.75;;;3.42;;
21148;SDS011;10732;51.472;6.466;2023-08-20T10:50:10;7.25;;;3.88;;
21148;SDS011;10732;51.472;6.466;2023-08-20T10:52:55;6.80;;;3.25;;
21148;SDS011;10732;51.472;6.466;2023-08-20T10:55:21;7.43;;;3.33;;
21148;SDS011;10732;51.472;6.466;2023-08-20T10:57:57;6.30;;;3.33;;
21148;SDS011;10732;51.472;6.466;2023-08-20T11:00:24;10.50;;;3.83;;
21148;SDS011;10732;51.472;6.466;2023-08-20T11:02:50;9.50;;;3.85;;
21148;SDS011;10732;51.472;6.466;2023-08-20T11:05:18;9.30;;;4.07;;
21148;SDS011;10732;51.472;6.466;2023-08-20T11:07:45;8.30;;;3.38;;
21148;SDS011;10732;51.472;6.466;2023-08-20T11:10:14;6.40;;;3.47;;
21148;SDS011;10732;51.472;6.466;2023-08-20T11:12:42;9.55;;;3.90;;
21148;SDS011;10732;51.472;6.466;2023-08-20T11:15:11;6.88;;;3.72;;
21148;SDS011;10732;51.472;6.466;2023-08-20T11:17:40;8.13;;;3.60;;
21148;SDS011;10732;51.472;6.466;2023-08-20T11:20:07;7.35;;;3.40;;
21148;SDS011;10732;51.472;6.466;2023-08-20T11:22:32;4.97;;;2.70;;
21148;SDS011;10732;51.472;6.466;2023-08-20T11:24:59;7.22;;;3.15;;
21148;SDS011;10732;51.472;6.466;2023-08-20T11:27:28;7.63;;;3.33;;
21148;SDS011;10732;51.472;6.466;2023-08-20T11:29:53;8.55;;;3.20;;
21148;SDS011;10732;51.472;6.466;2023-08-20T11:32:21;9.05;;;3.60;;
21148;SDS011;10732;51.472;6.466;2023-08-20T11:34:48;7.65;;;3.35;;
21148;SDS011;10732;51.472;6.466;2023-08-20T11:37:15;6.57;;;2.92;;
21148;SDS011;10732;51.472;6.466;2023-08-20T11:39:43;9.32;;;3.63;;
21148;SDS011;10732;51.472;6.466;2023-08-20T11:42:09;6.88;;;2.97;;
21148;SDS011;10732;51.472;6.466;2023-08-20T11:44:46;4.93;;;2.40;;
21148;SDS011;10732;51.472;6.466;2023-08-20T11:47:15;7.55;;;2.50;;
21148;SDS011;10732;51.472;6.466;2023-08-20T11:49:41;8.18;;;2.22;;
21148;SDS011;10732;51.472;6.466;2023-08-20T11:52:07;4.78;;;2.10;;
21148;SDS011;10732;51.472;6.466;2023-08-20T11:54:34;6.97;;;2.30;;
21148;SDS011;10732;51.472;6.466;2023-08-20T11:57:04;9.20;;;2.42;;
21148;SDS011;10732;51.472;6.466;2023-08-20T11:59:30;6.93;;;2.70;;
21148;SDS011;10732;51.472;6.466;2023-08-20T12:01:59;7.82;;;3.00;;
21148;SDS011;10732;51.472;6.466;2023-08-20T12:04:29;5.65;;;2.80;;
21148;SDS011;10732;51.472;6.466;2023-08-20T12:07:02;6.75;;;2.78;;
21148;SDS011;10732;51.472;6.466;2023-08-20T12:09:38;7.60;;;2.60;;
21148;SDS011;10732;51.472;6.466;2023-08-20T12:12:05;6.50;;;2.83;;
21148;SDS011;10732;51.472;6.466;2023-08-20T12:14:32;10.82;;;2.60;;
21148;SDS011;10732;51.472;6.466;2023-08-20T12:16:58;5.93;;;2.53;;
21148;SDS011;10732;51.472;6.466;2023-08-20T12:19:24;5.38;;;2.60;;
21148;SDS011;10732;51.472;6.466;2023-08-20T12:21:49;6.32;;;2.17;;
21148;SDS011;10732;51.472;6.466;2023-08-20T12:24:15;5.53;;;2.40;;
21148;SDS011;10732;51.472;6.466;2023-08-20T12:26:41;7.22;;;2.70;;
21148;SDS011;10732;51.472;6.466;2023-08-20T12:29:07;6.55;;;2.60;;
21148;SDS011;10732;51.472;6.466;2023-08-20T12:31:33;5.88;;;2.40;;
21148;SDS011;10732;51.472;6.466;2023-08-20T12:33:59;6.65;;;2.42;;
21148;SDS011;10732;51.472;6.466;2023-08-20T12:36:25;6.20;;;2.60;;
21148;SDS011;10732;51.472;6.466;2023-08-20T12:38:51;8.32;;;2.70;;
21148;SDS011;10732;51.472;6.466;2023-08-20T12:41:18;6.63;;;2.65;;
21148;SDS011;10732;51.472;6.466;2023-08-20T12:43:43;8.10;;;2.65;;
21148;SDS011;10732;51.472;6.466;2023-08-20T12:46:09;5.80;;;2.15;;
21148;SDS011;10732;51.472;6.466;2023-08-20T12:48:35;7.20;;;2.35;;
21148;SDS011;10732;51.472;6.466;2023-08-20T12:51:00;8.00;;;2.78;;
21148;SDS011;10732;51.472;6.466;2023-08-20T12:53:27;4.00;;;1.80;;
21148;SDS011;10732;51.472;6.466;2023-08-20T12:55:53;8.85;;;2.20;;
21148;SDS011;10732;51.472;6.466;2023-08-20T12:58:19;8.20;;;3.20;;
21148;SDS011;10732;51.472;6.466;2023-08-20T13:00:45;5.32;;;2.10;;
21148;SDS011;10732;51.472;6.466;2023-08-20T13:03:11;5.40;;;2.28;;
21148;SDS011;10732;51.472;6.466;2023-08-20T13:05:37;5.65;;;2.10;;
21148;SDS011;10732;51.472;6.466;2023-08-20T13:08:02;6.25;;;2.22;;
21148;SDS011;10732;51.472;6.466;2023-08-20T13:10:28;6.40;;;2.28;;
21148;SDS011;10732;51.472;6.466;2023-08-20T13:12:54;8.40;;;2.65;;
21148;SDS011;10732;51.472;6.466;2023-08-20T13:15:26;5.90;;;2.45;;
21148;SDS011;10732;51.472;6.466;2023-08-20T13:17:52;7.05;;;2.55;;
21148;SDS011;10732;51.472;6.466;2023-08-20T13:20:18;4.15;;;1.85;;
21148;SDS011;10732;51.472;6.466;2023-08-20T13:22:48;6.57;;;2.10;;
21148;SDS011;10732;51.472;6.466;2023-08-20T13:25:14;5.75;;;2.28;;
21148;SDS011;10732;51.472;6.466;2023-08-20T13:27:40;5.90;;;2.70;;
21148;SDS011;10732;51.472;6.466;2023-08-20T13:30:06;5.43;;;1.95;;
21148;SDS011;10732;51.472;6.466;2023-08-20T13:32:33;5.30;;;2.00;;
21148;SDS011;10732;51.472;6.466;2023-08-20T13:34:59;5.95;;;1.73;;
21148;SDS011;10732;51.472;6.466;2023-08-20T13:37:24;6.10;;;2.30;;
21148;SDS011;10732;51.472;6.466;2023-08-20T13:39:50;8.00;;;2.67;;
21148;SDS011;10732;51.472;6.466;2023-08-20T13:42:16;5.32;;;1.90;;
21148;SDS011;10732;51.472;6.466;2023-08-20T13:44:41;5.00;;;1.88;;
21148;SDS011;10732;51.472;6.466;2023-08-20T13:47:07;3.00;;;1.63;;
21148;SDS011;10732;51.472;6.466;2023-08-20T13:49:33;4.68;;;2.20;;
21148;SDS011;10732;51.472;6.466;2023-08-20T13:51:58;4.40;;;2.05;;
21148;SDS011;10732;51.472;6.466;2023-08-20T13:54:24;4.93;;;2.00;;
21148;SDS011;10732;51.472;6.466;2023-08-20T13:56:49;6.03;;;2.22;;
21148;SDS011;10732;51.472;6.466;2023-08-20T13:59:15;7.28;;;2.30;;
21148;SDS011;10732;51.472;6.466;2023-08-20T14:01:40;5.28;;;2.38;;
21148;SDS011;10732;51.472;6.466;2023-08-20T14:04:06;6.30;;;2.20;;
21148;SDS011;10732;51.472;6.466;2023-08-20T14:06:32;5.40;;;2.30;;
21148;SDS011;10732;51.472;6.466;2023-08-20T14:08:58;4.03;;;2.00;;
21148;SDS011;10732;51.472;6.466;2023-08-20T14:11:23;6.65;;;2.22;;
21148;SDS011;10732;51.472;6.466;2023-08-20T14:13:49;5.90;;;2.00;;
21148;SDS011;10732;51.472;6.466;2023-08-20T14:16:14;5.55;;;2.00;;
21148;SDS011;10732;51.472;6.466;2023-08-20T14:18:40;3.75;;;1.67;;
21148;SDS011;10732;51.472;6.466;2023-08-20T14:21:05;8.25;;;1.92;;
21148;SDS011;10732;51.472;6.466;2023-08-20T14:23:31;4.45;;;1.73;;
21148;SDS011;10732;51.472;6.466;2023-08-20T14:25:57;6.30;;;1.90;;
21148;SDS011;10732;51.472;6.466;2023-08-20T14:28:22;4.97;;;1.77;;
21148;SDS011;10732;51.472;6.466;2023-08-20T14:30:48;4.97;;;2.00;;
21148;SDS011;10732;51.472;6.466;2023-08-20T14:33:16;3.55;;;1.50;;
21148;SDS011;10732;51.472;6.466;2023-08-20T14:35:41;4.13;;;1.77;;
21148;SDS011;10732;51.472;6.466;2023-08-20T14:38:07;6.25;;;2.10;;
21148;SDS011;10732;51.472;6.466;2023-08-20T14:40:39;4.70;;;1.90;;
21148;SDS011;10732;51.472;6.466;2023-08-20T14:43:08;4.15;;;2.03;;
21148;SDS011;10732;51.472;6.466;2023-08-20T14:45:34;3.65;;;1.60;;
21148;SDS011;10732;51.472;6.466;2023-08-20T14:48:00;5.75;;;2.08;;